createdAt,value
2023-02-15T00:02:10.231Z,78.63
2023-02-15T00:04:47.392Z,73.40
2023-02-15T00:07:22.041Z,76.53
2023-02-15T00:09:52.015Z,73.80
2023-02-15T00:12:19.753Z,76.97
2023-02-15T00:14:49.427Z,73.40
2023-02-15T00:17:18.148Z,76.23
2023-02-15T00:19:45.872Z,76.40
2023-02-15T00:22:13.807Z,77.33
2023-02-15T00:25:03.219Z,78.40
2023-02-15T00:27:37.704Z,72.47
2023-02-15T00:30:07.934Z,78.23
2023-02-15T00:32:42.209Z,77.20
2023-02-15T00:35:10.697Z,76.90
2023-02-15T00:37:39.530Z,78.03
2023-02-15T00:40:09.273Z,76.57
2023-02-15T00:42:41.718Z,75.90
2023-02-15T00:45:09.890Z,80.50
2023-02-15T00:47:37.226Z,75.07
2023-02-15T00:50:05.691Z,69.13
2023-02-15T00:52:35.594Z,72.60
2023-02-15T00:55:05.137Z,67.20
2023-02-15T00:57:32.878Z,73.10
2023-02-15T01:00:02.390Z,70.20
2023-02-15T01:02:38.250Z,76.03
2023-02-15T01:05:12.190Z,72.30
2023-02-15T01:07:41.158Z,74.23
2023-02-15T01:10:11.792Z,76.83
2023-02-15T01:12:41.488Z,73.10
2023-02-15T01:15:17.052Z,67.30
2023-02-15T01:17:47.688Z,63.43
2023-02-15T01:20:21.097Z,75.27
2023-02-15T01:23:14.412Z,64.00
2023-02-15T01:25:46.907Z,68.07
2023-02-15T01:28:16.111Z,58.77
2023-02-15T01:30:46.899Z,68.57
2023-02-15T01:33:22.577Z,64.73
2023-02-15T01:35:50.635Z,74.27
2023-02-15T01:38:18.773Z,68.87
2023-02-15T01:40:48.753Z,63.90
2023-02-15T01:43:22.179Z,70.83
2023-02-15T01:45:56.720Z,71.17
2023-02-15T01:48:28.304Z,75.80
2023-02-15T01:51:05.387Z,75.33
2023-02-15T01:53:49.181Z,74.10
2023-02-15T01:56:24.348Z,72.30
2023-02-15T01:58:54.512Z,68.47
2023-02-15T02:01:24.125Z,65.33
2023-02-15T02:04:13.502Z,69.10
2023-02-15T02:06:42.647Z,54.50
2023-02-15T02:09:12.561Z,71.37
2023-02-15T02:11:47.629Z,73.20
2023-02-15T02:14:15.916Z,72.67
2023-02-15T02:16:58.307Z,74.30
2023-02-15T02:19:42.323Z,72.17
2023-02-15T02:22:18.320Z,78.90
2023-02-15T02:24:55.407Z,71.40
2023-02-15T02:27:46.164Z,65.33
2023-02-15T02:30:32.430Z,67.23
2023-02-15T02:35:33.988Z,60.83
2023-02-15T02:38:14.184Z,68.70
2023-02-15T02:40:51.911Z,74.27
2023-02-15T02:43:34.184Z,76.20
2023-02-15T02:46:15.834Z,69.20
2023-02-15T02:48:43.787Z,69.10
2023-02-15T02:51:23.659Z,66.23
2023-02-15T02:54:13.498Z,72.20
2023-02-15T02:56:49.308Z,55.93
2023-02-15T02:59:20.978Z,60.23
2023-02-15T03:01:54.862Z,65.10
2023-02-15T03:04:28.655Z,61.70
2023-02-15T03:07:36.994Z,63.37
2023-02-15T03:10:15.633Z,73.07
2023-02-15T03:12:58.508Z,73.30
2023-02-15T03:15:53.085Z,64.00
2023-02-15T03:18:28.057Z,64.50
2023-02-15T03:21:25.330Z,62.17
2023-02-15T03:24:33.431Z,51.47
2023-02-15T03:27:10.510Z,62.77
2023-02-15T03:29:44.165Z,69.67
2023-02-15T03:32:14.536Z,69.63
2023-02-15T03:34:42.311Z,62.23
2023-02-15T03:37:12.943Z,69.23
2023-02-15T03:39:48.677Z,70.90
2023-02-15T03:42:21.710Z,59.13
2023-02-15T03:45:14.064Z,60.60
2023-02-15T03:48:11.350Z,56.67
2023-02-15T03:51:10.907Z,62.17
2023-02-15T03:53:41.228Z,57.13
2023-02-15T03:56:15.909Z,60.27
2023-02-15T03:59:03.363Z,61.53
2023-02-15T04:04:48.365Z,55.40
2023-02-15T04:07:17.482Z,60.03
2023-02-15T04:10:03.790Z,59.80
2023-02-15T04:12:32.501Z,53.97
2023-02-15T04:15:24.582Z,57.00
2023-02-15T04:18:08.413Z,55.00
2023-02-15T04:20:59.617Z,50.43
2023-02-15T04:23:51.071Z,55.73
2023-02-15T04:26:20.922Z,55.03
2023-02-15T04:28:50.125Z,56.13
2023-02-15T04:31:18.554Z,55.13
2023-02-15T04:34:01.150Z,54.80
2023-02-15T04:36:32.411Z,55.00
2023-02-15T04:39:01.431Z,59.00
2023-02-15T04:41:32.185Z,54.00
2023-02-15T04:44:08.695Z,59.10
2023-02-15T04:46:36.888Z,53.37
2023-02-15T04:49:08.583Z,55.20
2023-02-15T04:51:36.138Z,57.30
2023-02-15T04:54:03.441Z,56.40
2023-02-15T04:56:34.368Z,57.97
2023-02-15T04:59:06.657Z,58.77
2023-02-15T05:01:36.172Z,53.67
2023-02-15T05:04:04.909Z,60.47
2023-02-15T05:06:32.593Z,63.03
2023-02-15T05:09:00.285Z,55.50
2023-02-15T05:11:28.927Z,57.80
2023-02-15T05:13:56.286Z,56.80
2023-02-15T05:16:27.573Z,53.03
2023-02-15T05:18:56.407Z,55.93
2023-02-15T05:21:23.862Z,58.30
2023-02-15T05:23:51.317Z,61.33
2023-02-15T05:26:39.414Z,61.77
2023-02-15T05:29:06.796Z,61.30
2023-02-15T05:31:34.694Z,62.13
2023-02-15T05:34:10.018Z,60.33
2023-02-15T05:36:37.524Z,63.73
2023-02-15T05:39:07.006Z,65.47
2023-02-15T05:41:35.012Z,64.60
2023-02-15T05:44:03.429Z,59.67
2023-02-15T05:46:30.838Z,61.90
2023-02-15T05:48:59.646Z,57.63
2023-02-15T05:51:27.352Z,61.23
2023-02-15T05:53:57.651Z,59.53
2023-02-15T05:56:24.991Z,68.13
2023-02-15T05:58:59.728Z,67.70
2023-02-15T06:01:27.019Z,63.90
2023-02-15T06:03:57.846Z,56.47
2023-02-15T06:06:27.107Z,64.77
2023-02-15T06:08:54.669Z,63.73
2023-02-15T06:11:21.959Z,61.03
2023-02-15T06:13:49.481Z,62.87
2023-02-15T06:16:19.975Z,60.60
2023-02-15T06:18:49.514Z,63.43
2023-02-15T06:21:17.022Z,66.13
2023-02-15T06:23:44.928Z,65.00
2023-02-15T06:26:12.287Z,57.47
2023-02-15T06:28:42.064Z,62.50
2023-02-15T06:31:11.702Z,59.03
2023-02-15T06:33:39.602Z,64.63
2023-02-15T06:39:04.071Z,64.33
2023-02-15T06:41:32.750Z,58.80
2023-02-15T06:44:00.147Z,57.17
2023-02-15T06:46:28.845Z,57.23
2023-02-15T06:48:59.572Z,59.17
2023-02-15T06:51:27.293Z,58.73
2023-02-15T06:53:54.613Z,63.90
2023-02-15T06:56:22.245Z,64.93
2023-02-15T06:58:50.767Z,69.27
2023-02-15T07:01:19.187Z,71.10
2023-02-15T07:03:47.768Z,66.57
2023-02-15T07:06:16.409Z,61.78
2023-02-15T07:08:48.260Z,59.20
2023-02-15T07:11:36.969Z,57.23
2023-02-15T07:14:04.894Z,62.30
2023-02-15T07:16:35.466Z,92.30
2023-02-15T07:19:02.980Z,80.90
2023-02-15T07:21:30.510Z,65.60
2023-02-15T07:24:00.352Z,62.00
2023-02-15T07:26:27.811Z,58.67
2023-02-15T07:28:56.878Z,60.33
2023-02-15T07:31:25.601Z,54.87
2023-02-15T07:33:54.364Z,55.78
2023-02-15T07:36:22.592Z,55.70
2023-02-15T07:39:22.531Z,60.03
2023-02-15T07:41:56.511Z,109.13
2023-02-15T07:44:37.242Z,65.37
2023-02-15T07:47:04.663Z,59.27
2023-02-15T07:49:32.385Z,67.83
2023-02-15T07:52:02.751Z,62.10
2023-02-15T07:54:32.238Z,73.93
2023-02-15T07:57:02.365Z,74.90
2023-02-15T07:59:30.480Z,64.57
2023-02-15T08:02:01.813Z,68.20
2023-02-15T08:04:30.571Z,71.53
2023-02-15T08:07:00.900Z,66.97
2023-02-15T08:09:30.605Z,65.07
2023-02-15T08:11:59.338Z,59.77
2023-02-15T08:14:27.092Z,63.27
2023-02-15T08:16:58.925Z,63.37
2023-02-15T08:22:17.151Z,72.13
2023-02-15T08:24:44.479Z,62.47
2023-02-15T08:27:35.833Z,69.13
2023-02-15T08:30:05.965Z,70.43
2023-02-15T08:32:34.750Z,69.17
2023-02-15T08:35:03.001Z,62.50
2023-02-15T08:37:30.344Z,57.17
2023-02-15T08:40:48.862Z,54.93
2023-02-15T08:43:19.121Z,52.83
2023-02-15T08:45:47.265Z,50.87
2023-02-15T08:48:15.283Z,48.67
2023-02-15T08:50:42.608Z,47.47
2023-02-15T08:53:15.517Z,45.77
2023-02-15T08:55:47.578Z,46.47
2023-02-15T09:01:12.686Z,46.80
2023-02-15T09:03:40.785Z,42.93
2023-02-15T09:06:09.332Z,41.93
2023-02-15T09:08:37.034Z,37.13
2023-02-15T09:11:08.523Z,32.43
2023-02-15T09:13:36.138Z,38.67
2023-02-15T09:16:10.496Z,40.80
2023-02-15T09:18:39.399Z,43.53
2023-02-15T09:21:15.521Z,45.30
2023-02-15T09:23:46.361Z,43.47
2023-02-15T09:26:18.380Z,41.60
2023-02-15T09:28:46.153Z,45.10
2023-02-15T09:31:18.559Z,46.67
2023-02-15T09:33:49.209Z,47.83
2023-02-15T09:36:21.372Z,46.23
2023-02-15T09:38:49.135Z,43.37
2023-02-15T09:41:22.702Z,39.53
2023-02-15T09:44:11.516Z,41.83
2023-02-15T09:46:41.937Z,43.17
2023-02-15T09:49:18.959Z,39.80
2023-02-15T09:52:15.409Z,39.50
2023-02-15T09:55:33.206Z,39.53
2023-02-15T09:58:27.486Z,45.10
2023-02-15T10:01:05.483Z,42.70
2023-02-15T10:03:41.581Z,43.23
2023-02-15T10:06:11.534Z,42.53
2023-02-15T10:08:51.883Z,40.23
2023-02-15T10:11:40.073Z,46.53
2023-02-15T10:14:16.589Z,41.47
2023-02-15T10:17:03.330Z,46.00
2023-02-15T10:19:43.198Z,41.83
2023-02-15T10:22:10.498Z,46.97
2023-02-15T10:24:53.145Z,43.13
2023-02-15T10:27:22.101Z,51.53
2023-02-15T10:30:05.880Z,47.43
2023-02-15T10:32:38.407Z,48.57
2023-02-15T10:35:13.498Z,52.87
2023-02-15T10:37:48.526Z,48.93
2023-02-15T10:40:35.707Z,42.97
2023-02-15T10:43:17.429Z,46.23
2023-02-15T10:45:49.127Z,43.10
2023-02-15T10:48:43.821Z,40.23
2023-02-15T10:51:18.206Z,42.07
2023-02-15T10:53:46.087Z,39.93
2023-02-15T10:56:17.540Z,36.80
2023-02-15T10:58:49.046Z,37.37
2023-02-15T11:01:21.057Z,41.73
2023-02-15T11:04:03.813Z,41.77
2023-02-15T11:06:32.167Z,40.40
2023-02-15T11:09:05.577Z,44.00
2023-02-15T11:11:38.007Z,43.60
2023-02-15T11:14:07.347Z,43.53
2023-02-15T11:16:39.599Z,39.40
2023-02-15T11:19:13.231Z,44.50
2023-02-15T11:21:51.100Z,45.97
2023-02-15T11:24:19.689Z,49.13
2023-02-15T11:26:50.114Z,45.87
2023-02-15T11:29:25.147Z,48.97
2023-02-15T11:31:56.918Z,51.77
2023-02-15T11:34:35.183Z,51.00
2023-02-15T11:37:23.477Z,52.80
2023-02-15T11:39:55.914Z,51.97
2023-02-15T11:42:25.439Z,50.97
2023-02-15T11:45:16.375Z,56.30
2023-02-15T11:47:43.967Z,48.57
2023-02-15T11:50:19.548Z,47.03
2023-02-15T11:52:47.107Z,48.30
2023-02-15T11:55:19.596Z,51.93
2023-02-15T11:57:51.078Z,52.40
2023-02-15T12:00:29.015Z,52.17
2023-02-15T12:02:57.395Z,54.60
2023-02-15T12:05:28.709Z,48.93
2023-02-15T12:08:19.646Z,55.93
2023-02-15T12:11:02.345Z,52.43
2023-02-15T12:13:33.722Z,57.30
2023-02-15T12:16:06.961Z,59.03
2023-02-15T12:18:37.665Z,57.37
2023-02-15T12:21:16.952Z,56.50
2023-02-15T12:23:54.147Z,58.47
2023-02-15T12:26:27.823Z,53.00
2023-02-15T12:28:59.870Z,53.57
2023-02-15T12:31:31.119Z,55.43
2023-02-15T12:34:00.543Z,50.63
2023-02-15T12:36:31.454Z,45.53
2023-02-15T12:39:08.538Z,47.93
2023-02-15T12:41:36.092Z,51.53
2023-02-15T12:44:19.683Z,48.67
2023-02-15T12:47:29.046Z,48.87
2023-02-15T12:50:12.232Z,49.70
2023-02-15T12:52:40.438Z,52.90
2023-02-15T12:55:22.492Z,55.00
2023-02-15T12:57:51.814Z,53.00
2023-02-15T13:00:44.246Z,55.03
2023-02-15T13:03:25.241Z,55.37
2023-02-15T13:06:05.272Z,54.40
2023-02-15T13:08:35.031Z,58.10
2023-02-15T13:11:05.359Z,59.80
2023-02-15T13:13:55.095Z,62.57
2023-02-15T13:16:51.872Z,72.70
2023-02-15T13:19:21.637Z,66.77
2023-02-15T13:21:52.052Z,56.37
2023-02-15T13:24:54.401Z,64.13
2023-02-15T13:27:25.717Z,62.37
2023-02-15T13:29:59.533Z,60.03
2023-02-15T13:32:38.124Z,58.73
2023-02-15T13:35:09.039Z,58.57
2023-02-15T13:37:59.488Z,58.93
2023-02-15T13:40:32.220Z,56.10
2023-02-15T13:43:07.324Z,60.00
2023-02-15T13:45:39.502Z,61.60
2023-02-15T13:48:22.157Z,60.03
2023-02-15T13:50:57.820Z,59.73
2023-02-15T13:53:41.137Z,62.57
2023-02-15T13:56:08.888Z,58.97
2023-02-15T13:58:42.033Z,61.27
2023-02-15T14:01:10.218Z,61.83
2023-02-15T14:03:44.580Z,59.43
2023-02-15T14:06:28.529Z,59.83
2023-02-15T14:09:14.726Z,64.27
2023-02-15T14:11:44.981Z,62.00
2023-02-15T14:14:34.871Z,60.67
2023-02-15T14:19:56.644Z,62.00
2023-02-15T14:22:39.492Z,67.60
2023-02-15T14:25:30.985Z,67.70
2023-02-15T14:28:02.564Z,71.93
2023-02-15T14:30:34.722Z,70.07
2023-02-15T14:33:26.265Z,65.33
2023-02-15T14:35:59.572Z,73.53
2023-02-15T14:38:45.450Z,68.47
2023-02-15T14:41:25.450Z,65.33
2023-02-15T14:44:10.011Z,70.80
2023-02-15T14:46:41.336Z,75.83
2023-02-15T14:49:21.193Z,79.53
2023-02-15T14:51:48.644Z,74.50
2023-02-15T14:54:42.340Z,73.93
2023-02-15T14:57:13.373Z,77.30
2023-02-15T15:00:08.643Z,73.90
2023-02-15T15:02:49.895Z,71.77
2023-02-15T15:05:26.212Z,64.57
2023-02-15T15:08:04.197Z,69.00
2023-02-15T15:10:45.964Z,66.23
2023-02-15T15:13:31.943Z,62.77
2023-02-15T15:16:22.480Z,61.50
2023-02-15T15:18:50.524Z,60.10
2023-02-15T15:21:37.681Z,66.00
2023-02-15T15:24:07.615Z,65.67
2023-02-15T15:26:37.883Z,64.10
2023-02-15T15:29:06.144Z,67.47
2023-02-15T15:31:42.739Z,70.57
2023-02-15T15:34:21.682Z,71.10
2023-02-15T15:37:07.911Z,64.37
2023-02-15T15:39:43.803Z,59.13
2023-02-15T15:42:18.049Z,57.33
2023-02-15T15:45:00.980Z,55.83
2023-02-15T15:47:51.349Z,53.07
2023-02-15T15:50:23.487Z,55.37
2023-02-15T15:52:53.565Z,62.43
2023-02-15T15:55:25.478Z,60.73
2023-02-15T15:57:58.450Z,61.23
2023-02-15T16:00:46.477Z,60.13
2023-02-15T16:03:17.420Z,61.50
2023-02-15T16:05:44.866Z,60.90
2023-02-15T16:08:12.336Z,66.80
2023-02-15T16:10:39.843Z,64.67
2023-02-15T16:13:08.183Z,64.20
2023-02-15T16:15:37.363Z,67.10
2023-02-15T16:18:05.414Z,68.07
2023-02-15T16:20:35.072Z,64.70
2023-02-15T16:23:05.264Z,60.77
2023-02-15T16:26:05.077Z,60.83
2023-02-15T16:28:32.703Z,59.97
2023-02-15T16:31:07.699Z,56.03
2023-02-15T16:33:39.405Z,62.17
2023-02-15T16:36:10.899Z,63.33
2023-02-15T16:38:44.456Z,66.37
2023-02-15T16:41:12.953Z,64.93
2023-02-15T16:43:41.302Z,64.60
2023-02-15T16:46:12.338Z,60.27
2023-02-15T16:48:45.110Z,63.50
2023-02-15T16:51:20.663Z,56.97
2023-02-15T16:53:49.417Z,64.27
2023-02-15T16:56:19.208Z,64.07
2023-02-15T16:58:47.183Z,61.77
2023-02-15T17:01:16.416Z,61.13
2023-02-15T17:03:44.404Z,64.60
2023-02-15T17:06:27.534Z,61.57
2023-02-15T17:09:06.902Z,64.57
2023-02-15T17:11:37.093Z,61.20
2023-02-15T17:14:04.564Z,64.53
2023-02-15T17:16:34.340Z,60.90
2023-02-15T17:19:11.766Z,65.57
2023-02-15T17:21:43.041Z,63.40
2023-02-15T17:24:18.157Z,66.67
2023-02-15T17:26:52.036Z,66.67
2023-02-15T17:29:32.912Z,60.70
2023-02-15T17:32:02.454Z,65.17
2023-02-15T23:22:20.533Z,107.43
2023-02-15T23:24:50.577Z,108.17
2023-02-15T23:27:37.302Z,106.97
2023-02-15T23:30:05.823Z,104.20
2023-02-15T23:32:33.370Z,112.50
2023-02-15T23:35:00.679Z,111.87
2023-02-15T23:37:28.022Z,104.27
2023-02-15T23:40:13.865Z,112.13
2023-02-15T23:42:41.223Z,112.13
2023-02-15T23:45:19.134Z,112.50
2023-02-15T23:48:05.886Z,115.33
2023-02-15T23:50:33.213Z,113.07
